sensor_id;sensor_type;location;lat;lon;timestamp;P1;durP1;ratioP1;P2;durP2;ratioP2
70132;SDS011;57495;49.922;7.966;2022-12-17T00:02:18;22.40;;;8.50;;
70132;SDS011;57495;49.922;7.966;2022-12-17T00:04:37;23.45;;;9.65;;
70132;SDS011;57495;49.922;7.966;2022-12-17T00:06:59;24.45;;;10.05;;
70132;SDS011;57495;49.922;7.966;2022-12-17T00:09:18;21.58;;;9.82;;
70132;SDS011;57495;49.922;7.966;2022-12-17T00:11:38;25.77;;;11.40;;
70132;SDS011;57495;49.922;7.966;2022-12-17T00:13:58;21.27;;;10.20;;
70132;SDS011;57495;49.922;7.966;2022-12-17T00:16:16;20.83;;;9.77;;
70132;SDS011;57495;49.922;7.966;2022-12-17T00:18:47;23.77;;;9.27;;
70132;SDS011;57495;49.922;7.966;2022-12-17T00:21:07;22.30;;;9.10;;
70132;SDS011;57495;49.922;7.966;2022-12-17T00:23:27;22.50;;;9.38;;
70132;SDS011;57495;49.922;7.966;2022-12-17T00:25:48;17.20;;;8.00;;
70132;SDS011;57495;49.922;7.966;2022-12-17T00:28:09;20.25;;;8.45;;
70132;SDS011;57495;49.922;7.966;2022-12-17T00:30:28;18.25;;;8.00;;
70132;SDS011;57495;49.922;7.966;2022-12-17T00:32:47;19.38;;;8.20;;
70132;SDS011;57495;49.922;7.966;2022-12-17T00:35:07;18.67;;;7.47;;
70132;SDS011;57495;49.922;7.966;2022-12-17T00:37:26;18.10;;;7.53;;
70132;SDS011;57495;49.922;7.966;2022-12-17T00:39:45;18.08;;;7.47;;
70132;SDS011;57495;49.922;7.966;2022-12-17T00:42:04;21.30;;;8.25;;
70132;SDS011;57495;49.922;7.966;2022-12-17T00:44:25;17.52;;;7.45;;
70132;SDS011;57495;49.922;7.966;2022-12-17T00:46:40;18.75;;;8.50;;
70132;SDS011;57495;49.922;7.966;2022-12-17T00:48:59;18.27;;;8.10;;
70132;SDS011;57495;49.922;7.966;2022-12-17T00:51:19;17.75;;;7.63;;
70132;SDS011;57495;49.922;7.966;2022-12-17T00:53:38;15.00;;;7.07;;
70132;SDS011;57495;49.922;7.966;2022-12-17T00:55:57;17.73;;;7.60;;
70132;SDS011;57495;49.922;7.966;2022-12-17T00:58:16;15.82;;;7.28;;
70132;SDS011;57495;49.922;7.966;2022-12-17T01:00:37;18.70;;;8.30;;
70132;SDS011;57495;49.922;7.966;2022-12-17T01:03:02;17.30;;;7.80;;
70132;SDS011;57495;49.922;7.966;2022-12-17T01:05:23;19.60;;;8.15;;
70132;SDS011;57495;49.922;7.966;2022-12-17T01:07:42;16.00;;;7.75;;
70132;SDS011;57495;49.922;7.966;2022-12-17T01:10:01;19.00;;;8.35;;
70132;SDS011;57495;49.922;7.966;2022-12-17T01:12:21;17.90;;;8.00;;
70132;SDS011;57495;49.922;7.966;2022-12-17T01:14:40;16.80;;;6.65;;
70132;SDS011;57495;49.922;7.966;2022-12-17T01:17:01;20.33;;;7.80;;
70132;SDS011;57495;49.922;7.966;2022-12-17T01:19:20;16.80;;;7.75;;
70132;SDS011;57495;49.922;7.966;2022-12-17T01:21:39;15.90;;;7.25;;
70132;SDS011;57495;49.922;7.966;2022-12-17T01:23:58;16.60;;;7.07;;
70132;SDS011;57495;49.922;7.966;2022-12-17T01:26:17;17.42;;;6.43;;
70132;SDS011;57495;49.922;7.966;2022-12-17T01:28:37;14.73;;;6.03;;
70132;SDS011;57495;49.922;7.966;2022-12-17T01:30:56;12.82;;;6.13;;
70132;SDS011;57495;49.922;7.966;2022-12-17T01:33:16;16.17;;;6.47;;
70132;SDS011;57495;49.922;7.966;2022-12-17T01:35:36;17.03;;;6.87;;
70132;SDS011;57495;49.922;7.966;2022-12-17T01:37:55;18.40;;;7.10;;
70132;SDS011;57495;49.922;7.966;2022-12-17T01:40:14;16.77;;;7.65;;
70132;SDS011;57495;49.922;7.966;2022-12-17T01:42:37;17.92;;;7.50;;
70132;SDS011;57495;49.922;7.966;2022-12-17T01:44:56;18.55;;;7.40;;
70132;SDS011;57495;49.922;7.966;2022-12-17T01:47:16;18.77;;;7.77;;
70132;SDS011;57495;49.922;7.966;2022-12-17T01:49:37;19.48;;;8.52;;
70132;SDS011;57495;49.922;7.966;2022-12-17T01:51:56;23.27;;;8.98;;
70132;SDS011;57495;49.922;7.966;2022-12-17T01:54:16;17.17;;;7.03;;
70132;SDS011;57495;49.922;7.966;2022-12-17T01:56:36;20.77;;;8.20;;
70132;SDS011;57495;49.922;7.966;2022-12-17T01:58:58;19.33;;;8.03;;
70132;SDS011;57495;49.922;7.966;2022-12-17T02:01:17;17.00;;;7.85;;
70132;SDS011;57495;49.922;7.966;2022-12-17T02:03:42;17.73;;;7.90;;
70132;SDS011;57495;49.922;7.966;2022-12-17T02:06:13;18.58;;;7.70;;
70132;SDS011;57495;49.922;7.966;2022-12-17T02:08:40;21.77;;;7.43;;
70132;SDS011;57495;49.922;7.966;2022-12-17T02:11:07;20.27;;;8.43;;
70132;SDS011;57495;49.922;7.966;2022-12-17T02:13:36;19.45;;;8.10;;
70132;SDS011;57495;49.922;7.966;2022-12-17T02:16:00;18.63;;;7.38;;
70132;SDS011;57495;49.922;7.966;2022-12-17T02:18:26;20.80;;;8.07;;
70132;SDS011;57495;49.922;7.966;2022-12-17T02:20:52;20.25;;;8.35;;
70132;SDS011;57495;49.922;7.966;2022-12-17T02:23:21;20.67;;;7.20;;
70132;SDS011;57495;49.922;7.966;2022-12-17T02:25:52;22.38;;;9.10;;
70132;SDS011;57495;49.922;7.966;2022-12-17T02:28:15;22.23;;;8.27;;
70132;SDS011;57495;49.922;7.966;2022-12-17T02:30:34;20.05;;;7.47;;
70132;SDS011;57495;49.922;7.966;2022-12-17T02:32:54;20.77;;;8.50;;
70132;SDS011;57495;49.922;7.966;2022-12-17T02:35:15;22.33;;;8.03;;
70132;SDS011;57495;49.922;7.966;2022-12-17T02:37:35;19.30;;;8.38;;
70132;SDS011;57495;49.922;7.966;2022-12-17T02:39:56;16.15;;;8.13;;
70132;SDS011;57495;49.922;7.966;2022-12-17T02:42:15;19.50;;;7.28;;
70132;SDS011;57495;49.922;7.966;2022-12-17T02:44:37;20.23;;;8.25;;
70132;SDS011;57495;49.922;7.966;2022-12-17T02:46:59;18.20;;;7.93;;
70132;SDS011;57495;49.922;7.966;2022-12-17T02:49:19;19.75;;;8.07;;
70132;SDS011;57495;49.922;7.966;2022-12-17T02:51:39;17.33;;;8.15;;
70132;SDS011;57495;49.922;7.966;2022-12-17T02:54:00;20.73;;;8.60;;
70132;SDS011;57495;49.922;7.966;2022-12-17T02:56:20;19.30;;;8.25;;
70132;SDS011;57495;49.922;7.966;2022-12-17T02:58:39;17.30;;;6.77;;
70132;SDS011;57495;49.922;7.966;2022-12-17T03:01:02;16.90;;;7.78;;
70132;SDS011;57495;49.922;7.966;2022-12-17T03:03:21;21.95;;;7.57;;
70132;SDS011;57495;49.922;7.966;2022-12-17T03:05:40;17.08;;;7.45;;
70132;SDS011;57495;49.922;7.966;2022-12-17T03:08:00;18.88;;;8.10;;
70132;SDS011;57495;49.922;7.966;2022-12-17T03:10:19;17.80;;;7.70;;
70132;SDS011;57495;49.922;7.966;2022-12-17T03:12:38;18.08;;;8.32;;
70132;SDS011;57495;49.922;7.966;2022-12-17T03:14:57;19.13;;;8.68;;
70132;SDS011;57495;49.922;7.966;2022-12-17T03:17:18;21.30;;;8.70;;
70132;SDS011;57495;49.922;7.966;2022-12-17T03:19:36;23.17;;;9.80;;
70132;SDS011;57495;49.922;7.966;2022-12-17T03:21:55;22.50;;;9.87;;
70132;SDS011;57495;49.922;7.966;2022-12-17T03:24:15;20.25;;;8.88;;
70132;SDS011;57495;49.922;7.966;2022-12-17T03:26:34;20.08;;;7.95;;
70132;SDS011;57495;49.922;7.966;2022-12-17T03:28:53;22.20;;;9.05;;
70132;SDS011;57495;49.922;7.966;2022-12-17T03:31:17;25.27;;;9.30;;
70132;SDS011;57495;49.922;7.966;2022-12-17T03:33:38;22.20;;;8.93;;
70132;SDS011;57495;49.922;7.966;2022-12-17T03:35:57;17.48;;;7.65;;
70132;SDS011;57495;49.922;7.966;2022-12-17T03:38:16;19.60;;;7.10;;
70132;SDS011;57495;49.922;7.966;2022-12-17T03:40:40;21.83;;;8.48;;
70132;SDS011;57495;49.922;7.966;2022-12-17T03:43:03;17.80;;;7.85;;
70132;SDS011;57495;49.922;7.966;2022-12-17T03:45:23;20.57;;;7.20;;
70132;SDS011;57495;49.922;7.966;2022-12-17T03:47:42;14.70;;;6.10;;
70132;SDS011;57495;49.922;7.966;2022-12-17T03:50:03;17.95;;;7.60;;
70132;SDS011;57495;49.922;7.966;2022-12-17T03:52:23;17.58;;;8.13;;
70132;SDS011;57495;49.922;7.966;2022-12-17T03:54:42;18.45;;;7.50;;
70132;SDS011;57495;49.922;7.966;2022-12-17T03:57:01;16.47;;;6.50;;
70132;SDS011;57495;49.922;7.966;2022-12-17T03:59:20;17.67;;;7.68;;
70132;SDS011;57495;49.922;7.966;2022-12-17T04:01:39;20.33;;;7.55;;
70132;SDS011;57495;49.922;7.966;2022-12-17T04:03:59;21.02;;;7.57;;
70132;SDS011;57495;49.922;7.966;2022-12-17T04:06:19;23.25;;;7.32;;
70132;SDS011;57495;49.922;7.966;2022-12-17T04:08:38;15.63;;;7.80;;
70132;SDS011;57495;49.922;7.966;2022-12-17T04:10:58;18.83;;;7.97;;
70132;SDS011;57495;49.922;7.966;2022-12-17T04:13:17;15.88;;;7.72;;
70132;SDS011;57495;49.922;7.966;2022-12-17T04:15:36;18.58;;;7.05;;
70132;SDS011;57495;49.922;7.966;2022-12-17T04:17:55;20.08;;;6.90;;
70132;SDS011;57495;49.922;7.966;2022-12-17T04:20:14;17.43;;;7.50;;
70132;SDS011;57495;49.922;7.966;2022-12-17T04:22:37;22.08;;;7.50;;
70132;SDS011;57495;49.922;7.966;2022-12-17T04:25:02;15.80;;;6.45;;
70132;SDS011;57495;49.922;7.966;2022-12-17T04:27:20;22.52;;;8.88;;
70132;SDS011;57495;49.922;7.966;2022-12-17T04:29:39;22.17;;;8.63;;
70132;SDS011;57495;49.922;7.966;2022-12-17T04:31:58;17.80;;;7.63;;
70132;SDS011;57495;49.922;7.966;2022-12-17T04:34:18;24.88;;;7.88;;
70132;SDS011;57495;49.922;7.966;2022-12-17T04:36:38;18.38;;;7.88;;
70132;SDS011;57495;49.922;7.966;2022-12-17T04:38:59;19.95;;;8.35;;
70132;SDS011;57495;49.922;7.966;2022-12-17T04:41:18;19.52;;;8.07;;
70132;SDS011;57495;49.922;7.966;2022-12-17T04:43:37;17.90;;;6.13;;
70132;SDS011;57495;49.922;7.966;2022-12-17T04:45:56;16.10;;;6.55;;
70132;SDS011;57495;49.922;7.966;2022-12-17T04:48:15;17.77;;;7.03;;
70132;SDS011;57495;49.922;7.966;2022-12-17T04:50:34;19.75;;;7.82;;
70132;SDS011;57495;49.922;7.966;2022-12-17T04:52:58;19.73;;;7.50;;
70132;SDS011;57495;49.922;7.966;2022-12-17T04:55:19;17.53;;;6.83;;
70132;SDS011;57495;49.922;7.966;2022-12-17T04:57:38;16.48;;;7.00;;
70132;SDS011;57495;49.922;7.966;2022-12-17T04:59:57;18.55;;;7.88;;
70132;SDS011;57495;49.922;7.966;2022-12-17T05:02:16;18.52;;;7.95;;
70132;SDS011;57495;49.922;7.966;2022-12-17T05:04:35;17.52;;;7.63;;
70132;SDS011;57495;49.922;7.966;2022-12-17T05:07:03;21.93;;;8.30;;
70132;SDS011;57495;49.922;7.966;2022-12-17T05:09:22;17.10;;;7.45;;
70132;SDS011;57495;49.922;7.966;2022-12-17T05:11:43;22.45;;;8.23;;
70132;SDS011;57495;49.922;7.966;2022-12-17T05:14:02;15.95;;;7.32;;
70132;SDS011;57495;49.922;7.966;2022-12-17T05:16:21;16.48;;;7.28;;
70132;SDS011;57495;49.922;7.966;2022-12-17T05:18:40;18.37;;;7.47;;
70132;SDS011;57495;49.922;7.966;2022-12-17T05:21:00;20.77;;;8.55;;
70132;SDS011;57495;49.922;7.966;2022-12-17T05:23:19;17.38;;;7.43;;
70132;SDS011;57495;49.922;7.966;2022-12-17T05:25:38;19.65;;;7.20;;
70132;SDS011;57495;49.922;7.966;2022-12-17T05:28:10;15.25;;;6.45;;
70132;SDS011;57495;49.922;7.966;2022-12-17T05:30:29;17.20;;;7.00;;
70132;SDS011;57495;49.922;7.966;2022-12-17T05:32:56;18.17;;;6.95;;
70132;SDS011;57495;49.922;7.966;2022-12-17T05:35:16;18.20;;;6.70;;
70132;SDS011;57495;49.922;7.966;2022-12-17T05:37:35;17.15;;;7.32;;
70132;SDS011;57495;49.922;7.966;2022-12-17T05:40:06;16.15;;;7.15;;
70132;SDS011;57495;49.922;7.966;2022-12-17T05:42:26;17.83;;;7.30;;
70132;SDS011;57495;49.922;7.966;2022-12-17T05:44:47;18.65;;;7.55;;
70132;SDS011;57495;49.922;7.966;2022-12-17T05:47:05;17.88;;;7.22;;
70132;SDS011;57495;49.922;7.966;2022-12-17T05:49:24;17.13;;;7.20;;
70132;SDS011;57495;49.922;7.966;2022-12-17T05:51:44;13.82;;;6.10;;
70132;SDS011;57495;49.922;7.966;2022-12-17T05:54:03;16.43;;;6.67;;
70132;SDS011;57495;49.922;7.966;2022-12-17T05:56:23;16.10;;;6.90;;
70132;SDS011;57495;49.922;7.966;2022-12-17T05:58:42;17.63;;;7.35;;
70132;SDS011;57495;49.922;7.966;2022-12-17T06:01:03;17.77;;;6.35;;
70132;SDS011;57495;49.922;7.966;2022-12-17T06:03:23;18.27;;;6.85;;
70132;SDS011;57495;49.922;7.966;2022-12-17T06:05:42;21.03;;;7.93;;
70132;SDS011;57495;49.922;7.966;2022-12-17T06:08:02;18.02;;;6.15;;
70132;SDS011;57495;49.922;7.966;2022-12-17T06:10:22;13.23;;;5.90;;
70132;SDS011;57495;49.922;7.966;2022-12-17T06:12:53;15.65;;;6.43;;
70132;SDS011;57495;49.922;7.966;2022-12-17T06:15:13;17.85;;;7.63;;
70132;SDS011;57495;49.922;7.966;2022-12-17T06:17:33;19.37;;;7.17;;
70132;SDS011;57495;49.922;7.966;2022-12-17T06:19:52;19.30;;;7.25;;
70132;SDS011;57495;49.922;7.966;2022-12-17T06:22:11;18.38;;;7.70;;
70132;SDS011;57495;49.922;7.966;2022-12-17T06:24:31;16.13;;;7.50;;
70132;SDS011;57495;49.922;7.966;2022-12-17T06:26:50;16.83;;;7.10;;
70132;SDS011;57495;49.922;7.966;2022-12-17T06:29:09;18.70;;;7.77;;
70132;SDS011;57495;49.922;7.966;2022-12-17T06:31:31;18.00;;;7.15;;
70132;SDS011;57495;49.922;7.966;2022-12-17T06:33:51;23.48;;;8.35;;
70132;SDS011;57495;49.922;7.966;2022-12-17T06:36:10;21.42;;;8.18;;
70132;SDS011;57495;49.922;7.966;2022-12-17T06:38:30;16.10;;;7.05;;
70132;SDS011;57495;49.922;7.966;2022-12-17T06:40:49;18.93;;;7.30;;
70132;SDS011;57495;49.922;7.966;2022-12-17T06:43:08;16.48;;;6.93;;
70132;SDS011;57495;49.922;7.966;2022-12-17T06:45:27;17.70;;;6.93;;
70132;SDS011;57495;49.922;7.966;2022-12-17T06:47:46;16.67;;;7.43;;
70132;SDS011;57495;49.922;7.966;2022-12-17T06:50:07;20.38;;;7.97;;
70132;SDS011;57495;49.922;7.966;2022-12-17T06:52:27;19.43;;;7.27;;
70132;SDS011;57495;49.922;7.966;2022-12-17T06:54:46;17.95;;;7.88;;
70132;SDS011;57495;49.922;7.966;2022-12-17T06:57:05;20.25;;;8.10;;
70132;SDS011;57495;49.922;7.966;2022-12-17T06:59:24;16.50;;;6.68;;
70132;SDS011;57495;49.922;7.966;2022-12-17T07:01:44;19.38;;;6.28;;
70132;SDS011;57495;49.922;7.966;2022-12-17T07:04:03;13.70;;;5.97;;
70132;SDS011;57495;49.922;7.966;2022-12-17T07:06:24;19.58;;;7.63;;
70132;SDS011;57495;49.922;7.966;2022-12-17T07:08:43;18.23;;;7.97;;
70132;SDS011;57495;49.922;7.966;2022-12-17T07:11:02;17.30;;;6.72;;
70132;SDS011;57495;49.922;7.966;2022-12-17T07:13:21;16.67;;;6.70;;
70132;SDS011;57495;49.922;7.966;2022-12-17T07:15:40;16.70;;;6.53;;
70132;SDS011;57495;49.922;7.966;2022-12-17T07:18:00;23.88;;;8.18;;
70132;SDS011;57495;49.922;7.966;2022-12-17T07:20:21;19.67;;;7.43;;
70132;SDS011;57495;49.922;7.966;2022-12-17T07:22:54;14.45;;;6.47;;
70132;SDS011;57495;49.922;7.966;2022-12-17T07:25:13;21.83;;;7.57;;
70132;SDS011;57495;49.922;7.966;2022-12-17T07:27:32;18.97;;;6.53;;
70132;SDS011;57495;49.922;7.966;2022-12-17T07:29:48;18.13;;;6.63;;
70132;SDS011;57495;49.922;7.966;2022-12-17T07:32:07;18.83;;;6.95;;
70132;SDS011;57495;49.922;7.966;2022-12-17T07:34:26;18.13;;;7.93;;
70132;SDS011;57495;49.922;7.966;2022-12-17T07:36:45;15.95;;;7.00;;
70132;SDS011;57495;49.922;7.966;2022-12-17T07:39:06;18.90;;;6.97;;
70132;SDS011;57495;49.922;7.966;2022-12-17T07:41:25;19.90;;;7.13;;
70132;SDS011;57495;49.922;7.966;2022-12-17T07:43:45;20.70;;;6.90;;
70132;SDS011;57495;49.922;7.966;2022-12-17T07:46:04;16.73;;;6.70;;
70132;SDS011;57495;49.922;7.966;2022-12-17T07:48:23;16.35;;;6.15;;
70132;SDS011;57495;49.922;7.966;2022-12-17T07:50:42;21.00;;;8.17;;
70132;SDS011;57495;49.922;7.966;2022-12-17T07:53:02;18.08;;;6.38;;
70132;SDS011;57495;49.922;7.966;2022-12-17T07:55:23;17.83;;;7.63;;
70132;SDS011;57495;49.922;7.966;2022-12-17T07:57:56;20.67;;;7.22;;
70132;SDS011;57495;49.922;7.966;2022-12-17T08:00:16;14.35;;;6.70;;
70132;SDS011;57495;49.922;7.966;2022-12-17T08:02:35;18.83;;;6.67;;
70132;SDS011;57495;49.922;7.966;2022-12-17T08:04:54;20.42;;;7.10;;
70132;SDS011;57495;49.922;7.966;2022-12-17T08:07:13;19.55;;;7.15;;
70132;SDS011;57495;49.922;7.966;2022-12-17T08:09:32;22.88;;;7.93;;
70132;SDS011;57495;49.922;7.966;2022-12-17T08:11:53;19.17;;;7.32;;
70132;SDS011;57495;49.922;7.966;2022-12-17T08:14:13;18.23;;;6.40;;
70132;SDS011;57495;49.922;7.966;2022-12-17T08:16:32;18.58;;;8.00;;
70132;SDS011;57495;49.922;7.966;2022-12-17T08:18:51;22.52;;;7.95;;
70132;SDS011;57495;49.922;7.966;2022-12-17T08:21:10;22.88;;;9.25;;
70132;SDS011;57495;49.922;7.966;2022-12-17T08:23:30;19.98;;;8.23;;
70132;SDS011;57495;49.922;7.966;2022-12-17T08:25:49;20.60;;;8.00;;
70132;SDS011;57495;49.922;7.966;2022-12-17T08:28:09;21.38;;;8.27;;
70132;SDS011;57495;49.922;7.966;2022-12-17T08:30:28;20.17;;;8.35;;
70132;SDS011;57495;49.922;7.966;2022-12-17T08:32:47;18.88;;;8.35;;
70132;SDS011;57495;49.922;7.966;2022-12-17T08:35:07;20.92;;;7.35;;
70132;SDS011;57495;49.922;7.966;2022-12-17T08:37:26;21.07;;;8.57;;
70132;SDS011;57495;49.922;7.966;2022-12-17T08:39:45;17.27;;;6.78;;
70132;SDS011;57495;49.922;7.966;2022-12-17T08:42:04;17.33;;;6.88;;
70132;SDS011;57495;49.922;7.966;2022-12-17T08:44:25;22.00;;;7.53;;
70132;SDS011;57495;49.922;7.966;2022-12-17T08:46:44;18.88;;;7.00;;
70132;SDS011;57495;49.922;7.966;2022-12-17T08:49:03;17.90;;;7.80;;
70132;SDS011;57495;49.922;7.966;2022-12-17T08:51:22;18.83;;;7.47;;
70132;SDS011;57495;49.922;7.966;2022-12-17T08:53:42;21.25;;;8.80;;
70132;SDS011;57495;49.922;7.966;2022-12-17T08:56:01;21.33;;;8.10;;
70132;SDS011;57495;49.922;7.966;2022-12-17T08:58:20;20.35;;;8.65;;
70132;SDS011;57495;49.922;7.966;2022-12-17T09:00:41;22.53;;;8.67;;
70132;SDS011;57495;49.922;7.966;2022-12-17T09:03:00;21.83;;;8.13;;
70132;SDS011;57495;49.922;7.966;2022-12-17T09:05:21;24.75;;;9.07;;
70132;SDS011;57495;49.922;7.966;2022-12-17T09:07:40;25.85;;;9.43;;
70132;SDS011;57495;49.922;7.966;2022-12-17T09:09:59;24.63;;;9.50;;
70132;SDS011;57495;49.922;7.966;2022-12-17T09:12:17;22.77;;;8.40;;
70132;SDS011;57495;49.922;7.966;2022-12-17T09:14:36;20.98;;;8.57;;
70132;SDS011;57495;49.922;7.966;2022-12-17T09:16:57;21.98;;;8.40;;
70132;SDS011;57495;49.922;7.966;2022-12-17T09:19:16;21.23;;;9.07;;
70132;SDS011;57495;49.922;7.966;2022-12-17T09:21:35;24.88;;;9.15;;
70132;SDS011;57495;49.922;7.966;2022-12-17T09:23:54;22.33;;;9.13;;
70132;SDS011;57495;49.922;7.966;2022-12-17T09:26:13;24.75;;;9.73;;
70132;SDS011;57495;49.922;7.966;2022-12-17T09:28:32;20.27;;;8.50;;
70132;SDS011;57495;49.922;7.966;2022-12-17T09:30:51;22.23;;;8.85;;
70132;SDS011;57495;49.922;7.966;2022-12-17T09:33:14;24.45;;;9.90;;
70132;SDS011;57495;49.922;7.966;2022-12-17T09:35:29;22.73;;;8.93;;
70132;SDS011;57495;49.922;7.966;2022-12-17T09:37:52;27.50;;;10.35;;
70132;SDS011;57495;49.922;7.966;2022-12-17T09:40:14;23.27;;;9.30;;
70132;SDS011;57495;49.922;7.966;2022-12-17T09:42:37;24.17;;;9.40;;
70132;SDS011;57495;49.922;7.966;2022-12-17T09:45:05;31.50;;;9.05;;
70132;SDS011;57495;49.922;7.966;2022-12-17T09:47:32;30.20;;;10.33;;
70132;SDS011;57495;49.922;7.966;2022-12-17T09:50:01;28.52;;;9.90;;
70132;SDS011;57495;49.922;7.966;2022-12-17T09:52:23;28.02;;;10.73;;
70132;SDS011;57495;49.922;7.966;2022-12-17T09:54:56;30.38;;;11.63;;
70132;SDS011;57495;49.922;7.966;2022-12-17T09:57:15;27.05;;;9.10;;
70132;SDS011;57495;49.922;7.966;2022-12-17T09:59:39;27.27;;;10.80;;
70132;SDS011;57495;49.922;7.966;2022-12-17T10:01:58;23.63;;;9.70;;
70132;SDS011;57495;49.922;7.966;2022-12-17T10:04:20;26.23;;;9.73;;
70132;SDS011;57495;49.922;7.966;2022-12-17T10:06:48;23.60;;;9.68;;
70132;SDS011;57495;49.922;7.966;2022-12-17T10:09:10;23.80;;;9.45;;
70132;SDS011;57495;49.922;7.966;2022-12-17T10:11:31;30.60;;;11.37;;
70132;SDS011;57495;49.922;7.966;2022-12-17T10:13:52;27.23;;;10.98;;
70132;SDS011;57495;49.922;7.966;2022-12-17T10:16:23;30.38;;;10.43;;
70132;SDS011;57495;49.922;7.966;2022-12-17T10:18:59;24.65;;;9.48;;
70132;SDS011;57495;49.922;7.966;2022-12-17T10:21:18;25.70;;;9.52;;
70132;SDS011;57495;49.922;7.966;2022-12-17T10:23:38;30.33;;;12.03;;
70132;SDS011;57495;49.922;7.966;2022-12-17T10:25:58;28.95;;;10.05;;
70132;SDS011;57495;49.922;7.966;2022-12-17T10:28:18;31.80;;;10.68;;
70132;SDS011;57495;49.922;7.966;2022-12-17T10:30:38;34.53;;;12.55;;
70132;SDS011;57495;49.922;7.966;2022-12-17T10:32:58;29.92;;;11.10;;
70132;SDS011;57495;49.922;7.966;2022-12-17T10:35:33;32.43;;;11.00;;
70132;SDS011;57495;49.922;7.966;2022-12-17T10:37:54;25.80;;;10.73;;
70132;SDS011;57495;49.922;7.966;2022-12-17T10:40:18;24.23;;;8.80;;
70132;SDS011;57495;49.922;7.966;2022-12-17T10:42:45;33.63;;;11.73;;
70132;SDS011;57495;49.922;7.966;2022-12-17T10:45:17;30.98;;;12.45;;
70132;SDS011;57495;49.922;7.966;2022-12-17T10:47:42;34.53;;;12.97;;
70132;SDS011;57495;49.922;7.966;2022-12-17T10:50:03;34.33;;;12.38;;
70132;SDS011;57495;49.922;7.966;2022-12-17T10:52:27;30.15;;;10.65;;
70132;SDS011;57495;49.922;7.966;2022-12-17T10:54:59;30.10;;;9.80;;
70132;SDS011;57495;49.922;7.966;2022-12-17T10:57:23;29.23;;;11.38;;
70132;SDS011;57495;49.922;7.966;2022-12-17T10:59:45;31.77;;;10.83;;
70132;SDS011;57495;49.922;7.966;2022-12-17T11:02:10;30.05;;;10.23;;
70132;SDS011;57495;49.922;7.966;2022-12-17T11:04:37;37.63;;;11.88;;
70132;SDS011;57495;49.922;7.966;2022-12-17T11:06:56;32.03;;;12.25;;
70132;SDS011;57495;49.922;7.966;2022-12-17T11:09:17;31.17;;;11.50;;
70132;SDS011;57495;49.922;7.966;2022-12-17T11:11:45;46.67;;;13.37;;
70132;SDS011;57495;49.922;7.966;2022-12-17T11:14:08;39.33;;;11.88;;
70132;SDS011;57495;49.922;7.966;2022-12-17T11:16:31;33.88;;;11.13;;
70132;SDS011;57495;49.922;7.966;2022-12-17T11:18:56;34.28;;;10.55;;
70132;SDS011;57495;49.922;7.966;2022-12-17T11:21:33;41.20;;;12.05;;
70132;SDS011;57495;49.922;7.966;2022-12-17T11:24:10;34.53;;;11.47;;
70132;SDS011;57495;49.922;7.966;2022-12-17T11:26:35;32.83;;;11.18;;
70132;SDS011;57495;49.922;7.966;2022-12-17T11:28:57;30.65;;;11.05;;
70132;SDS011;57495;49.922;7.966;2022-12-17T11:31:31;32.85;;;11.43;;
70132;SDS011;57495;49.922;7.966;2022-12-17T11:34:04;33.55;;;11.50;;
70132;SDS011;57495;49.922;7.966;2022-12-17T11:36:30;33.00;;;11.27;;
70132;SDS011;57495;49.922;7.966;2022-12-17T11:38:59;38.13;;;12.25;;
70132;SDS011;57495;49.922;7.966;2022-12-17T11:41:27;35.08;;;12.57;;
70132;SDS011;57495;49.922;7.966;2022-12-17T11:43:54;28.55;;;11.75;;
70132;SDS011;57495;49.922;7.966;2022-12-17T11:46:21;31.90;;;10.95;;
70132;SDS011;57495;49.922;7.966;2022-12-17T11:48:51;31.03;;;11.40;;
70132;SDS011;57495;49.922;7.966;2022-12-17T11:51:21;31.30;;;12.95;;
70132;SDS011;57495;49.922;7.966;2022-12-17T11:53:47;30.15;;;10.88;;
70132;SDS011;57495;49.922;7.966;2022-12-17T11:56:14;31.48;;;10.95;;
70132;SDS011;57495;49.922;7.966;2022-12-17T11:58:43;30.70;;;11.27;;
70132;SDS011;57495;49.922;7.966;2022-12-17T12:01:08;34.88;;;11.88;;
70132;SDS011;57495;49.922;7.966;2022-12-17T12:03:40;27.00;;;10.32;;
70132;SDS011;57495;49.922;7.966;2022-12-17T12:06:09;31.98;;;11.68;;
70132;SDS011;57495;49.922;7.966;2022-12-17T12:08:57;28.13;;;11.20;;
70132;SDS011;57495;49.922;7.966;2022-12-17T12:11:29;32.67;;;11.45;;
70132;SDS011;57495;49.922;7.966;2022-12-17T12:13:55;27.47;;;9.63;;
70132;SDS011;57495;49.922;7.966;2022-12-17T12:16:24;27.05;;;9.60;;
70132;SDS011;57495;49.922;7.966;2022-12-17T12:18:52;36.20;;;12.35;;
70132;SDS011;57495;49.922;7.966;2022-12-17T12:21:22;36.25;;;11.65;;
70132;SDS011;57495;49.922;7.966;2022-12-17T12:23:58;31.15;;;11.27;;
70132;SDS011;57495;49.922;7.966;2022-12-17T12:26:26;29.83;;;10.93;;
70132;SDS011;57495;49.922;7.966;2022-12-17T12:28:54;31.02;;;10.43;;
70132;SDS011;57495;49.922;7.966;2022-12-17T12:31:21;31.92;;;10.50;;
70132;SDS011;57495;49.922;7.966;2022-12-17T12:33:51;39.22;;;11.52;;
70132;SDS011;57495;49.922;7.966;2022-12-17T12:36:13;30.80;;;11.38;;
70132;SDS011;57495;49.922;7.966;2022-12-17T12:38:36;28.73;;;11.40;;
70132;SDS011;57495;49.922;7.966;2022-12-17T12:40:58;36.35;;;12.60;;
70132;SDS011;57495;49.922;7.966;2022-12-17T12:43:22;36.92;;;12.77;;
70132;SDS011;57495;49.922;7.966;2022-12-17T12:45:49;35.85;;;12.25;;
70132;SDS011;57495;49.922;7.966;2022-12-17T12:48:22;34.28;;;13.20;;
70132;SDS011;57495;49.922;7.966;2022-12-17T12:50:54;33.07;;;11.87;;
70132;SDS011;57495;49.922;7.966;2022-12-17T12:53:20;34.70;;;12.50;;
70132;SDS011;57495;49.922;7.966;2022-12-17T12:55:40;30.38;;;11.95;;
70132;SDS011;57495;49.922;7.966;2022-12-17T12:58:01;35.45;;;14.45;;
70132;SDS011;57495;49.922;7.966;2022-12-17T13:00:28;32.75;;;12.52;;
70132;SDS011;57495;49.922;7.966;2022-12-17T13:02:51;37.30;;;12.25;;
70132;SDS011;57495;49.922;7.966;2022-12-17T13:05:25;36.35;;;12.27;;
70132;SDS011;57495;49.922;7.966;2022-12-17T13:07:34;29.90;;;11.13;;
70132;SDS011;57495;49.922;7.966;2022-12-17T13:09:37;33.80;;;12.35;;
70132;SDS011;57495;49.922;7.966;2022-12-17T13:11:48;41.70;;;12.27;;
70132;SDS011;57495;49.922;7.966;2022-12-17T13:13:54;41.33;;;12.67;;
70132;SDS011;57495;49.922;7.966;2022-12-17T13:16:02;37.60;;;14.73;;
70132;SDS011;57495;49.922;7.966;2022-12-17T13:18:18;40.63;;;13.35;;
70132;SDS011;57495;49.922;7.966;2022-12-17T13:20:25;37.83;;;14.90;;
70132;SDS011;57495;49.922;7.966;2022-12-17T13:22:30;40.78;;;13.95;;
70132;SDS011;57495;49.922;7.966;2022-12-17T13:24:37;41.10;;;13.53;;
70132;SDS011;57495;49.922;7.966;2022-12-17T13:26:42;44.50;;;15.70;;
70132;SDS011;57495;49.922;7.966;2022-12-17T13:28:58;48.05;;;17.98;;
70132;SDS011;57495;49.922;7.966;2022-12-17T13:31:02;42.45;;;15.05;;
70132;SDS011;57495;49.922;7.966;2022-12-17T13:33:14;39.22;;;13.50;;
70132;SDS011;57495;49.922;7.966;2022-12-17T13:35:25;42.35;;;14.75;;
70132;SDS011;57495;49.922;7.966;2022-12-17T13:37:36;39.72;;;13.48;;
70132;SDS011;57495;49.922;7.966;2022-12-17T13:39:48;38.55;;;14.13;;
70132;SDS011;57495;49.922;7.966;2022-12-17T13:41:55;35.65;;;13.25;;
70132;SDS011;57495;49.922;7.966;2022-12-17T13:43:58;38.25;;;12.30;;
70132;SDS011;57495;49.922;7.966;2022-12-17T13:46:03;31.88;;;11.68;;
70132;SDS011;57495;49.922;7.966;2022-12-17T13:48:05;42.20;;;13.70;;
70132;SDS011;57495;49.922;7.966;2022-12-17T13:50:23;35.75;;;12.15;;
70132;SDS011;57495;49.922;7.966;2022-12-17T13:52:27;37.67;;;13.57;;
70132;SDS011;57495;49.922;7.966;2022-12-17T13:54:31;39.38;;;13.02;;